Time;durP1;ratioP1;P1;durP2;ratioP2;P2;SDS_P1;SDS_P2;PMS_P1;PMS_P2;Temp;Humidity;BMP_temperature;BMP_pressure;BME280_temperature;BME280_humidity;BME280_pressure;Samples;Min_cycle;Max_cycle;Signal;HPM_P1;HPM_P2
2022/05/14 00:01:29;;;;;;;1.73;1.58;;;21.00;64.90;;;;;;5014430;28;20218;-74
2022/05/14 00:03:56;;;;;;;1.83;1.73;;;20.90;64.80;;;;;;5015224;28;20200;-73
2022/05/14 00:06:25;;;;;;;1.75;1.65;;;21.00;64.90;;;;;;5014584;28;20280;-73
2022/05/14 00:08:52;;;;;;;1.88;1.77;;;20.90;64.70;;;;;;5014300;28;20220;-73
2022/05/14 00:14:05;;;;;;;1.90;1.73;;;21.00;64.80;;;;;;5014031;28;20199;-73
2022/05/14 00:16:33;;;;;;;2.78;1.90;;;20.90;64.70;;;;;;5012469;28;20192;-73
2022/05/14 00:19:01;;;;;;;2.83;2.10;;;20.90;64.60;;;;;;4997065;28;20211;-73
2022/05/14 00:21:28;;;;;;;1.80;1.60;;;20.90;64.60;;;;;;5012386;28;20228;-73
2022/05/14 00:23:53;;;;;;;1.88;1.67;;;20.90;64.60;;;;;;5012662;28;20181;-73
2022/05/14 00:26:21;;;;;;;2.28;2.05;;;20.90;64.60;;;;;;4996847;28;20542;-73
2022/05/14 00:28:47;;;;;;;2.33;1.40;;;20.90;64.60;;;;;;5026840;28;20180;-73
2022/05/14 00:31:14;;;;;;;1.70;1.60;;;20.90;64.50;;;;;;4999770;28;20223;-74
2022/05/14 00:33:39;;;;;;;1.63;1.40;;;20.90;64.60;;;;;;4999617;28;20184;-73
2022/05/14 00:36:06;;;;;;;1.70;1.60;;;20.90;64.60;;;;;;5016051;28;20362;-73
2022/05/14 00:38:32;;;;;;;1.90;1.70;;;20.90;64.60;;;;;;5000598;28;20279;-73
2022/05/14 00:41:05;;;;;;;1.77;1.65;;;20.90;64.50;;;;;;5032795;28;20211;-74
2022/05/14 00:43:32;;;;;;;1.90;1.80;;;20.90;64.60;;;;;;5015904;28;20184;-73
2022/05/14 00:46:14;;;;;;;1.55;1.45;;;20.90;64.50;;;;;;5016084;28;20221;-73
2022/05/14 00:48:43;;;;;;;1.50;1.40;;;20.90;64.50;;;;;;5016391;28;20176;-73
2022/05/14 00:51:17;;;;;;;2.38;1.70;;;20.90;64.50;;;;;;5015254;28;20211;-73
2022/05/14 00:53:49;;;;;;;1.80;1.70;;;20.90;64.60;;;;;;5015882;28;20187;-73
2022/05/14 00:56:23;;;;;;;2.45;1.60;;;20.90;64.50;;;;;;5032629;28;20172;-73
2022/05/14 00:59:02;;;;;;;1.98;1.70;;;20.90;64.40;;;;;;5015487;28;20173;-73
2022/05/14 01:01:29;;;;;;;1.63;1.52;;;20.90;64.40;;;;;;5015247;28;20257;-74
2022/05/14 01:03:56;;;;;;;2.13;1.80;;;20.90;64.40;;;;;;5016584;28;20208;-73
2022/05/14 01:06:25;;;;;;;2.55;1.40;;;20.90;64.40;;;;;;5015712;28;20183;-73
2022/05/14 01:08:51;;;;;;;1.67;1.52;;;20.90;64.40;;;;;;4998684;28;20271;-73
2022/05/14 01:11:17;;;;;;;1.70;1.60;;;20.80;64.30;;;;;;4998998;28;20230;-73
2022/05/14 01:13:46;;;;;;;1.77;1.60;;;20.90;64.40;;;;;;4999266;28;20215;-73
2022/05/14 01:16:12;;;;;;;1.42;1.33;;;20.90;64.40;;;;;;4999196;28;20567;-73
2022/05/14 01:18:38;;;;;;;2.13;1.73;;;20.90;64.40;;;;;;4999128;28;20655;-73
2022/05/14 01:21:28;;;;;;;1.40;1.30;;;20.90;64.40;;;;;;5015578;28;20204;-74
2022/05/14 01:27:25;;;;;;;1.50;1.40;;;20.90;64.40;;;;;;5014971;28;20176;-73
2022/05/14 01:29:51;;;;;;;1.90;1.80;;;20.90;64.40;;;;;;4998852;28;20184;-73
2022/05/14 01:32:17;;;;;;;1.60;1.50;;;20.80;64.10;;;;;;4999879;28;20265;-73
2022/05/14 01:34:46;;;;;;;1.60;1.50;;;20.90;64.30;;;;;;5000553;28;20184;-73
2022/05/14 01:37:15;;;;;;;1.70;1.50;;;20.90;64.30;;;;;;5019837;28;20187;-73
2022/05/14 01:39:42;;;;;;;1.50;1.40;;;20.80;64.10;;;;;;5036608;28;20180;-74
2022/05/14 01:42:08;;;;;;;1.75;1.65;;;20.80;64.10;;;;;;5019859;28;20232;-73
2022/05/14 01:44:35;;;;;;;1.70;1.60;;;20.80;64.10;;;;;;5019191;28;20180;-73
2022/05/14 01:47:01;;;;;;;1.60;1.50;;;20.80;64.20;;;;;;5003499;28;20279;-73
2022/05/14 01:49:27;;;;;;;2.33;1.90;;;20.80;64.10;;;;;;5003439;28;20180;-73
2022/05/14 01:51:55;;;;;;;1.65;1.55;;;20.80;64.10;;;;;;5009446;28;20227;-73
2022/05/14 01:54:21;;;;;;;2.08;1.88;;;20.80;64.00;;;;;;5014841;28;20186;-73
2022/05/14 01:56:47;;;;;;;2.28;1.88;;;20.80;64.00;;;;;;5015452;28;20235;-73
2022/05/14 01:59:14;;;;;;;1.88;1.73;;;20.80;64.00;;;;;;5014757;28;20184;-73
2022/05/14 02:01:40;;;;;;;1.70;1.60;;;20.80;63.90;;;;;;4998935;28;20224;-73
2022/05/14 02:04:11;;;;;;;2.35;2.15;;;20.80;64.00;;;;;;5000451;28;20189;-74
2022/05/14 02:06:39;;;;;;;1.85;1.70;;;20.80;63.90;;;;;;5015516;28;20181;-73
2022/05/14 02:09:13;;;;;;;1.73;1.60;;;20.80;64.00;;;;;;5014703;28;20179;-73
2022/05/14 02:11:42;;;;;;;1.77;1.67;;;20.80;63.90;;;;;;4983778;28;20213;-73
2022/05/14 02:14:18;;;;;;;1.70;1.60;;;20.80;63.90;;;;;;4984783;28;20239;-73
2022/05/14 02:16:44;;;;;;;1.70;1.60;;;20.80;63.90;;;;;;4983597;28;20192;-73
2022/05/14 02:19:10;;;;;;;2.05;1.80;;;20.80;64.00;;;;;;4983454;28;20611;-74
2022/05/14 02:21:36;;;;;;;1.98;1.73;;;20.80;63.90;;;;;;5015265;28;20216;-74
2022/05/14 02:24:02;;;;;;;1.70;1.60;;;20.80;63.90;;;;;;4982609;28;20185;-73
2022/05/14 02:26:29;;;;;;;1.40;1.30;;;20.80;63.90;;;;;;4983535;28;20200;-73
2022/05/14 02:28:57;;;;;;;1.95;1.77;;;20.80;63.90;;;;;;4982990;28;20181;-73
2022/05/14 02:31:23;;;;;;;1.80;1.70;;;20.80;63.90;;;;;;5015714;28;20259;-74
2022/05/14 02:33:48;;;;;;;2.35;1.55;;;20.80;63.90;;;;;;4999664;28;20192;-73
2022/05/14 02:36:16;;;;;;;2.10;1.90;;;20.80;63.90;;;;;;5005360;28;20243;-73
2022/05/14 02:38:42;;;;;;;1.73;1.63;;;20.80;63.80;;;;;;5002525;28;20192;-73
2022/05/14 02:41:10;;;;;;;1.83;1.63;;;20.80;63.80;;;;;;5018619;28;20208;-73
2022/05/14 02:43:36;;;;;;;1.63;1.52;;;20.80;63.70;;;;;;5002808;28;20180;-73
2022/05/14 02:46:04;;;;;;;2.30;2.15;;;20.80;63.70;;;;;;5002553;28;20211;-73
2022/05/14 02:48:31;;;;;;;2.25;1.55;;;20.80;63.70;;;;;;5002580;28;20185;-73
2022/05/14 02:50:58;;;;;;;1.83;1.73;;;20.80;63.70;;;;;;5018269;28;20210;-73
2022/05/14 02:53:25;;;;;;;2.20;2.05;;;20.70;63.60;;;;;;5027926;28;20187;-73
2022/05/14 02:55:51;;;;;;;2.42;1.98;;;20.70;63.50;;;;;;5015919;28;20564;-74
2022/05/14 02:59:06;;;;;;;1.80;1.70;;;20.70;63.50;;;;;;4999403;28;20196;-73
2022/05/14 03:01:03;;;;;;;2.22;1.50;;;20.70;63.60;;;;;;4998753;28;20220;-73
2022/05/14 03:03:29;;;;;;;1.42;1.25;;;20.70;63.60;;;;;;4983055;28;20181;-74
2022/05/14 03:05:55;;;;;;;1.67;1.58;;;20.70;63.60;;;;;;5016193;28;20184;-74
2022/05/14 03:08:20;;;;;;;1.83;1.70;;;20.70;63.60;;;;;;4983396;28;20196;-73
2022/05/14 03:10:46;;;;;;;1.60;1.50;;;20.70;63.60;;;;;;4982349;28;20204;-73
2022/05/14 03:13:12;;;;;;;1.55;1.45;;;20.70;63.60;;;;;;4997189;28;20198;-73
2022/05/14 03:15:38;;;;;;;1.92;1.65;;;20.70;63.50;;;;;;4981949;28;20351;-74
2022/05/14 03:18:04;;;;;;;1.92;1.83;;;20.70;63.50;;;;;;4981497;28;20185;-73
2022/05/14 03:20:30;;;;;;;1.92;1.67;;;20.80;63.60;;;;;;4982279;28;20209;-73
2022/05/14 03:22:56;;;;;;;1.77;1.67;;;20.80;63.60;;;;;;4982346;28;20220;-74
2022/05/14 03:25:22;;;;;;;2.22;1.90;;;20.70;63.40;;;;;;5000300;28;20211;-74
2022/05/14 03:27:47;;;;;;;1.70;1.60;;;20.70;63.40;;;;;;4997885;28;20277;-74
2022/05/14 03:30:14;;;;;;;2.28;2.08;;;20.70;63.30;;;;;;4994305;28;20205;-74
2022/05/14 03:32:40;;;;;;;1.80;1.70;;;20.70;63.30;;;;;;5054707;22;20256;-71
2022/05/14 03:35:08;;;;;;;1.80;1.70;;;20.70;63.30;;;;;;5072048;28;20170;-71
2022/05/14 03:37:35;;;;;;;2.08;1.73;;;20.70;63.30;;;;;;5055381;28;20263;-72
2022/05/14 03:40:03;;;;;;;2.10;1.90;;;20.70;63.20;;;;;;5055202;28;20182;-71
2022/05/14 03:42:31;;;;;;;1.70;1.60;;;20.70;63.30;;;;;;5071894;28;20334;-71
2022/05/14 03:44:58;;;;;;;1.98;1.83;;;20.70;63.30;;;;;;5072181;28;20276;-72
2022/05/14 03:47:24;;;;;;;2.08;1.65;;;20.70;63.20;;;;;;5055340;28;20174;-72
2022/05/14 03:49:50;;;;;;;1.60;1.50;;;20.70;63.20;;;;;;5061232;28;20187;-72
2022/05/14 03:52:17;;;;;;;2.30;2.10;;;20.70;63.20;;;;;;5051641;28;20635;-72
2022/05/14 03:54:45;;;;;;;1.52;1.42;;;20.70;63.30;;;;;;5051601;28;20178;-72
2022/05/14 03:57:13;;;;;;;1.85;1.70;;;20.70;63.20;;;;;;5034684;28;20262;-72
2022/05/14 03:59:39;;;;;;;2.65;1.60;;;20.60;63.10;;;;;;5051360;28;20263;-72
2022/05/14 04:02:06;;;;;;;2.25;1.67;;;20.70;63.20;;;;;;5051304;28;20309;-70
2022/05/14 04:04:32;;;;;;;1.52;1.42;;;20.70;63.20;;;;;;5034990;28;20193;-72
2022/05/14 04:06:59;;;;;;;1.80;1.70;;;20.70;63.20;;;;;;5035166;28;20178;-72
2022/05/14 04:09:26;;;;;;;1.52;1.42;;;20.70;63.20;;;;;;5051269;28;20178;-72
2022/05/14 04:11:54;;;;;;;1.77;1.67;;;20.70;63.20;;;;;;5051306;28;20233;-72
2022/05/14 04:14:22;;;;;;;1.60;1.50;;;20.60;63.00;;;;;;5051648;28;20183;-72
2022/05/14 04:16:50;;;;;;;1.70;1.60;;;20.70;63.10;;;;;;5051655;28;20239;-72
2022/05/14 04:19:16;;;;;;;3.10;1.67;;;20.70;63.10;;;;;;5051433;28;20194;-70
2022/05/14 04:21:42;;;;;;;3.03;1.50;;;20.60;63.00;;;;;;5050900;28;20209;-72
2022/05/14 04:24:09;;;;;;;1.95;1.80;;;20.60;63.00;;;;;;5051160;28;20178;-72
2022/05/14 04:26:35;;;;;;;1.70;1.60;;;20.60;63.00;;;;;;5034533;28;20277;-72
2022/05/14 04:29:01;;;;;;;1.98;1.80;;;20.70;63.10;;;;;;5034446;28;20678;-72
2022/05/14 04:31:29;;;;;;;1.70;1.60;;;20.60;62.90;;;;;;5034754;28;20724;-72
2022/05/14 04:33:55;;;;;;;1.88;1.77;;;20.60;62.90;;;;;;5034663;28;20255;-72
2022/05/14 04:36:21;;;;;;;1.70;1.60;;;20.60;62.90;;;;;;5034750;28;20209;-72
2022/05/14 04:38:48;;;;;;;1.60;1.50;;;20.60;62.90;;;;;;5034650;28;20186;-72
2022/05/14 04:41:13;;;;;;;1.98;1.63;;;20.60;62.90;;;;;;5034327;28;20182;-72
2022/05/14 04:43:40;;;;;;;2.05;1.40;;;20.60;62.90;;;;;;5051310;28;20232;-72
2022/05/14 04:46:08;;;;;;;1.52;1.42;;;20.60;62.90;;;;;;5051066;28;20186;-72
2022/05/14 04:48:36;;;;;;;1.60;1.50;;;20.60;62.90;;;;;;5050771;28;20219;-72
2022/05/14 04:51:04;;;;;;;2.20;1.42;;;20.60;63.00;;;;;;5034771;28;20186;-72
2022/05/14 04:53:30;;;;;;;1.60;1.50;;;20.60;62.90;;;;;;5050316;28;20182;-72
2022/05/14 04:55:56;;;;;;;2.92;1.60;;;20.60;62.90;;;;;;5050992;28;20186;-71
2022/05/14 04:58:22;;;;;;;1.83;1.40;;;20.60;62.90;;;;;;5033990;28;20193;-71
2022/05/14 05:00:49;;;;;;;1.67;1.58;;;20.60;63.00;;;;;;5034261;28;20202;-71
2022/05/14 05:03:17;;;;;;;1.70;1.42;;;20.60;62.90;;;;;;5034244;28;20299;-71
2022/05/14 05:05:49;;;;;;;2.00;1.55;;;20.60;62.90;;;;;;5034066;28;20563;-71
2022/05/14 05:08:17;;;;;;;1.45;1.35;;;20.60;62.90;;;;;;5034012;28;20237;-71
2022/05/14 05:10:43;;;;;;;1.73;1.63;;;20.60;62.90;;;;;;5036464;28;20265;-71
2022/05/14 05:13:16;;;;;;;1.40;1.30;;;20.60;62.90;;;;;;5037931;28;20202;-71
2022/05/14 05:15:43;;;;;;;1.90;1.80;;;20.60;62.80;;;;;;5071282;28;20178;-71
2022/05/14 05:18:11;;;;;;;2.00;1.90;;;20.60;62.70;;;;;;5054320;28;20186;-71
2022/05/14 05:20:40;;;;;;;1.80;1.70;;;20.60;62.70;;;;;;5054653;28;20187;-71
2022/05/14 05:23:10;;;;;;;1.55;1.45;;;20.60;62.70;;;;;;5038034;28;20275;-71
2022/05/14 05:25:36;;;;;;;1.70;1.45;;;20.60;62.70;;;;;;5037744;28;20179;-71
2022/05/14 05:28:02;;;;;;;1.48;1.38;;;20.60;62.60;;;;;;5054299;28;20186;-71
2022/05/14 05:30:27;;;;;;;1.90;1.45;;;20.60;62.50;;;;;;5037672;28;20665;-71
2022/05/14 05:32:53;;;;;;;1.73;1.42;;;20.60;62.40;;;;;;5054010;28;20667;-71
2022/05/14 05:35:21;;;;;;;1.42;1.27;;;20.60;62.40;;;;;;5054299;28;20178;-71
2022/05/14 05:37:48;;;;;;;1.67;1.58;;;20.60;62.30;;;;;;5054088;28;20240;-71
2022/05/14 05:40:16;;;;;;;1.65;1.55;;;20.60;62.30;;;;;;5054046;28;20182;-71
2022/05/14 05:42:44;;;;;;;1.48;1.38;;;20.60;62.20;;;;;;5053969;28;20289;-71
2022/05/14 05:45:13;;;;;;;1.70;1.50;;;20.60;62.20;;;;;;5070685;28;20191;-71
2022/05/14 05:47:40;;;;;;;1.95;1.75;;;20.60;62.30;;;;;;5054090;28;20182;-71
2022/05/14 05:50:07;;;;;;;1.52;1.33;;;20.60;62.30;;;;;;5037322;28;20666;-71
2022/05/14 05:52:33;;;;;;;1.60;1.50;;;20.50;62.20;;;;;;5054108;28;20242;-71
2022/05/14 05:57:45;;;;;;;2.08;1.63;;;20.60;62.40;;;;;;5054873;28;20185;-71
2022/05/14 06:00:16;;;;;;;1.80;1.60;;;20.60;62.10;;;;;;5037517;28;20185;-71
2022/05/14 06:02:42;;;;;;;1.50;1.40;;;20.50;62.20;;;;;;5053570;28;20591;-71
2022/05/14 06:05:09;;;;;;;1.63;1.52;;;20.60;62.20;;;;;;5037329;28;20178;-71
2022/05/14 06:07:36;;;;;;;1.48;1.38;;;20.50;62.10;;;;;;5053485;28;20198;-71
2022/05/14 06:10:05;;;;;;;1.88;1.65;;;20.60;62.30;;;;;;5053823;28;20191;-71
2022/05/14 06:12:31;;;;;;;1.95;1.85;;;20.60;62.20;;;;;;5036875;28;20747;-71
2022/05/14 06:14:56;;;;;;;1.70;1.42;;;20.60;62.30;;;;;;5036921;28;20183;-71
2022/05/14 06:17:23;;;;;;;2.25;1.38;;;20.60;62.30;;;;;;5053367;28;20178;-71
2022/05/14 06:19:49;;;;;;;2.40;1.70;;;20.60;62.30;;;;;;5036770;28;20232;-72
2022/05/14 06:22:14;;;;;;;2.13;1.55;;;20.60;62.10;;;;;;5052801;28;20218;-70
2022/05/14 06:24:40;;;;;;;1.85;1.45;;;20.60;62.10;;;;;;5053276;28;20182;-71
2022/05/14 06:27:06;;;;;;;1.55;1.40;;;20.60;62.20;;;;;;5054489;28;20258;-71
2022/05/14 06:29:33;;;;;;;1.60;1.50;;;20.60;62.20;;;;;;5053085;28;20190;-71
2022/05/14 06:31:59;;;;;;;2.00;1.85;;;20.60;62.30;;;;;;5061227;28;20585;-71
2022/05/14 06:34:25;;;;;;;1.45;1.35;;;20.60;62.20;;;;;;5056462;28;20670;-70
2022/05/14 06:36:52;;;;;;;1.60;1.50;;;20.60;62.20;;;;;;5073105;28;20210;-71
2022/05/14 06:39:19;;;;;;;2.10;1.90;;;20.60;62.30;;;;;;5072872;28;20178;-71
2022/05/14 06:41:44;;;;;;;1.88;1.67;;;20.60;62.20;;;;;;5089691;28;20312;-71
2022/05/14 06:44:11;;;;;;;2.03;1.63;;;20.60;62.10;;;;;;5049321;28;20210;-71
2022/05/14 06:46:37;;;;;;;2.53;1.83;;;20.70;62.20;;;;;;5059486;28;20178;-70
2022/05/14 06:49:04;;;;;;;2.45;1.65;;;20.70;62.20;;;;;;5055998;28;20181;-70
2022/05/14 06:51:32;;;;;;;1.90;1.50;;;20.70;62.20;;;;;;5073898;28;20194;-71
2022/05/14 06:54:11;;;;;;;2.05;1.70;;;20.70;62.00;;;;;;5072976;28;20188;-71
2022/05/14 06:56:43;;;;;;;2.38;1.75;;;20.70;62.00;;;;;;5072851;28;20165;-71
2022/05/14 06:59:10;;;;;;;1.85;1.65;;;20.70;61.70;;;;;;5072862;28;20667;-71
2022/05/14 07:01:40;;;;;;;1.58;1.48;;;20.70;61.70;;;;;;5056109;28;20210;-71
2022/05/14 07:06:56;;;;;;;1.55;1.42;;;20.70;61.60;;;;;;5072688;28;20565;-70
2022/05/14 07:09:27;;;;;;;1.70;1.60;;;20.80;61.70;;;;;;5089361;28;20673;-71
2022/05/14 07:12:03;;;;;;;2.40;1.30;;;20.70;61.60;;;;;;5052722;28;20218;-71
2022/05/14 07:14:31;;;;;;;1.77;1.60;;;20.70;61.50;;;;;;5052719;28;20173;-71
2022/05/14 07:16:57;;;;;;;2.45;1.50;;;20.70;61.60;;;;;;5052402;28;20190;-71
2022/05/14 07:19:23;;;;;;;1.50;1.40;;;20.70;61.40;;;;;;5035709;28;20191;-70
2022/05/14 07:21:51;;;;;;;1.50;1.25;;;20.80;61.50;;;;;;5035616;28;20221;-70
2022/05/14 07:24:24;;;;;;;1.52;1.30;;;20.80;61.20;;;;;;5035771;28;20272;-70
2022/05/14 07:26:54;;;;;;;1.70;1.60;;;20.80;61.30;;;;;;5060790;28;20186;-71
2022/05/14 07:29:23;;;;;;;2.28;1.70;;;20.80;61.10;;;;;;5055641;28;20177;-70
2022/05/14 07:31:50;;;;;;;1.50;1.40;;;20.80;61.00;;;;;;5072843;28;20209;-71
2022/05/14 07:34:16;;;;;;;2.22;1.40;;;20.80;61.10;;;;;;5054735;28;20221;-71
2022/05/14 07:37:09;;;;;;;1.67;1.50;;;20.80;60.70;;;;;;5072234;28;20276;-71
2022/05/14 07:39:44;;;;;;;1.80;1.40;;;20.90;60.70;;;;;;5045404;28;20190;-71
2022/05/14 07:42:19;;;;;;;1.70;1.60;;;20.90;60.80;;;;;;5053068;28;20741;-71
2022/05/14 07:44:49;;;;;;;1.77;1.50;;;20.90;60.80;;;;;;5065647;28;20173;-71
2022/05/14 07:47:16;;;;;;;1.63;1.35;;;20.90;60.60;;;;;;5088596;28;20272;-71
2022/05/14 07:49:46;;;;;;;2.55;1.48;;;20.90;60.60;;;;;;5088354;28;20188;-71
2022/05/14 07:52:13;;;;;;;1.80;1.25;;;21.00;60.50;;;;;;5088571;28;20208;-71
2022/05/14 07:54:39;;;;;;;2.28;1.58;;;21.00;60.50;;;;;;5055004;28;20246;-71
2022/05/14 07:57:08;;;;;;;2.63;1.83;;;21.00;60.50;;;;;;5071706;28;20182;-71
2022/05/14 07:59:36;;;;;;;1.70;1.48;;;21.00;60.50;;;;;;5071396;28;20190;-71
2022/05/14 08:02:18;;;;;;;1.38;1.27;;;21.00;60.50;;;;;;5071479;28;20255;-70
2022/05/14 08:04:44;;;;;;;1.48;1.38;;;21.00;60.60;;;;;;5055300;28;20185;-70
2022/05/14 08:07:10;;;;;;;2.45;1.58;;;21.00;61.30;;;;;;5054759;28;20181;-71
2022/05/14 08:09:35;;;;;;;2.30;1.60;;;21.00;60.60;;;;;;5054940;28;20186;-71
2022/05/14 08:12:02;;;;;;;2.35;1.63;;;21.00;60.70;;;;;;5071328;28;20218;-70
2022/05/14 08:14:29;;;;;;;2.60;1.73;;;21.00;60.70;;;;;;5054660;28;20190;-71
2022/05/14 08:16:55;;;;;;;2.95;1.88;;;21.00;60.70;;;;;;5055152;28;20296;-71
2022/05/14 08:19:20;;;;;;;1.95;1.58;;;21.00;60.70;;;;;;5054663;28;20257;-71
2022/05/14 08:24:31;;;;;;;1.80;1.60;;;21.00;60.80;;;;;;5071287;28;20180;-71
2022/05/14 08:27:06;;;;;;;2.08;1.60;;;21.00;60.80;;;;;;5072421;28;20180;-71
2022/05/14 08:29:32;;;;;;;1.63;1.40;;;21.00;60.80;;;;;;5054404;28;20180;-71
2022/05/14 08:31:59;;;;;;;1.90;1.70;;;21.00;60.60;;;;;;5071038;28;20232;-71
2022/05/14 08:34:26;;;;;;;3.22;1.75;;;21.00;60.70;;;;;;5071389;28;20181;-71
2022/05/14 08:36:51;;;;;;;2.05;1.50;;;21.10;60.70;;;;;;5054670;28;20181;-71
2022/05/14 08:39:19;;;;;;;1.90;1.60;;;21.10;60.70;;;;;;5087558;28;20185;-71
2022/05/14 08:41:50;;;;;;;2.40;1.77;;;21.10;60.70;;;;;;5070890;28;20228;-71
2022/05/14 08:44:25;;;;;;;3.08;1.70;;;21.10;60.70;;;;;;5107921;28;20189;-71
2022/05/14 08:47:06;;;;;;;2.65;1.70;;;21.20;60.70;;;;;;5111726;28;20196;-71
2022/05/14 08:50:03;;;;;;;2.20;1.63;;;21.20;60.70;;;;;;5077680;28;20268;-71
2022/05/14 08:52:29;;;;;;;1.63;1.40;;;21.20;60.60;;;;;;5073450;28;20270;-71
2022/05/14 08:55:14;;;;;;;1.70;1.60;;;21.10;60.60;;;;;;5111577;27;20192;-71
2022/05/14 08:58:13;;;;;;;3.20;1.80;;;21.20;60.70;;;;;;5060753;28;20671;-71
2022/05/14 09:00:39;;;;;;;3.28;1.77;;;21.10;60.80;;;;;;5077676;28;20257;-71
2022/05/14 09:03:04;;;;;;;1.65;1.50;;;21.10;60.80;;;;;;5060920;28;20316;-71
2022/05/14 09:05:35;;;;;;;1.90;1.80;;;21.10;60.70;;;;;;5077794;28;20209;-71
2022/05/14 09:08:02;;;;;;;1.40;1.30;;;21.10;60.70;;;;;;5077384;28;20274;-71
2022/05/14 09:10:39;;;;;;;1.70;1.60;;;21.10;60.70;;;;;;5077456;28;20181;-71
2022/05/14 09:13:22;;;;;;;2.20;1.50;;;21.20;60.70;;;;;;5077338;28;20209;-71
2022/05/14 09:15:55;;;;;;;2.05;1.75;;;21.20;60.70;;;;;;5078696;28;20192;-70
2022/05/14 09:18:31;;;;;;;2.67;1.45;;;21.10;60.60;;;;;;5078676;28;20185;-69
2022/05/14 09:21:02;;;;;;;1.77;1.52;;;21.20;60.80;;;;;;5078173;28;20193;-71
2022/05/14 09:23:44;;;;;;;2.92;1.83;;;21.20;60.80;;;;;;5077585;28;20229;-71
2022/05/14 09:26:39;;;;;;;1.45;1.35;;;21.20;60.90;;;;;;5060583;28;20711;-70
2022/05/14 09:29:29;;;;;;;2.47;1.50;;;21.20;60.90;;;;;;5060403;28;20637;-70
2022/05/14 09:32:05;;;;;;;2.40;2.05;;;21.20;60.90;;;;;;5090953;22;20245;-71
2022/05/14 09:34:34;;;;;;;1.70;1.60;;;21.10;60.80;;;;;;5045030;28;20222;-71
2022/05/14 09:37:17;;;;;;;3.05;1.60;;;21.10;60.90;;;;;;5043647;28;20182;-71
2022/05/14 09:39:43;;;;;;;2.33;1.55;;;21.10;61.00;;;;;;5043129;28;20170;-71
2022/05/14 09:42:38;;;;;;;1.50;1.40;;;21.10;61.00;;;;;;5061152;28;20217;-71
2022/05/14 09:45:22;;;;;;;1.75;1.55;;;21.10;61.00;;;;;;5059472;28;20175;-71
2022/05/14 09:47:49;;;;;;;3.63;1.98;;;21.10;60.90;;;;;;5043189;28;20182;-71
2022/05/14 09:50:30;;;;;;;2.60;1.60;;;21.20;60.90;;;;;;5026795;28;20178;-72
2022/05/14 09:53:04;;;;;;;2.85;1.70;;;21.20;61.00;;;;;;5027899;28;20257;-71
2022/05/14 09:55:48;;;;;;;1.83;1.50;;;21.20;61.00;;;;;;5027621;28;20186;-71
2022/05/14 09:58:45;;;;;;;2.42;1.40;;;21.20;61.00;;;;;;5044270;28;20235;-71
2022/05/14 10:01:32;;;;;;;2.30;1.70;;;21.20;61.00;;;;;;5037028;28;20285;-71
2022/05/14 10:04:28;;;;;;;2.83;1.83;;;21.20;61.00;;;;;;5056982;28;20182;-71
2022/05/14 10:07:24;;;;;;;3.47;1.50;;;21.20;61.10;;;;;;5039116;28;20183;-71
2022/05/14 10:10:28;;;;;;;1.83;1.45;;;21.20;61.10;;;;;;5017814;28;20689;-70
2022/05/14 10:13:15;;;;;;;1.90;1.48;;;21.20;61.10;;;;;;5001925;28;20202;-71
2022/05/14 10:15:47;;;;;;;2.65;1.50;;;21.20;61.10;;;;;;5001235;28;20187;-71
2022/05/14 10:18:45;;;;;;;2.05;1.50;;;21.20;61.00;;;;;;5000291;28;20690;-71
2022/05/14 10:21:34;;;;;;;2.15;1.60;;;21.20;61.10;;;;;;5016792;28;20187;-71
2022/05/14 10:27:46;;;;;;;2.72;1.67;;;21.20;61.10;;;;;;5019992;28;20208;-72
2022/05/14 10:30:29;;;;;;;2.42;1.60;;;21.20;61.10;;;;;;5019902;28;20199;-71
2022/05/14 10:33:03;;;;;;;2.08;1.60;;;21.20;61.10;;;;;;5035585;28;20207;-71
2022/05/14 10:36:09;;;;;;;3.08;1.58;;;21.20;61.10;;;;;;5019026;28;20187;-72
2022/05/14 10:38:56;;;;;;;1.70;1.25;;;21.20;61.20;;;;;;5034951;28;20175;-73
2022/05/14 10:41:37;;;;;;;2.92;1.42;;;21.20;61.20;;;;;;5033812;28;20210;-72
2022/05/14 10:44:12;;;;;;;1.55;1.45;;;21.20;61.10;;;;;;5036929;28;20186;-72
2022/05/14 10:46:41;;;;;;;2.03;1.73;;;21.20;61.10;;;;;;5020780;28;20189;-72
2022/05/14 10:49:52;;;;;;;3.72;1.70;;;21.20;61.20;;;;;;5056745;28;20162;-72
2022/05/14 10:52:19;;;;;;;2.97;1.50;;;21.20;61.20;;;;;;5037513;28;20206;-72
2022/05/14 10:54:46;;;;;;;1.73;1.52;;;21.20;61.20;;;;;;5053676;28;20641;-72
2022/05/14 10:57:15;;;;;;;2.13;1.50;;;21.20;61.20;;;;;;5023310;28;20183;-72
2022/05/14 11:00:20;;;;;;;2.85;1.60;;;21.20;61.20;;;;;;5025388;28;20228;-72
2022/05/14 11:03:22;;;;;;;2.13;1.70;;;21.20;61.20;;;;;;5022898;28;20596;-73
2022/05/14 11:06:02;;;;;;;2.00;1.45;;;21.20;61.30;;;;;;5020761;28;20235;-72
2022/05/14 11:08:35;;;;;;;1.67;1.30;;;21.20;61.30;;;;;;5022566;28;20184;-72
2022/05/14 11:11:10;;;;;;;2.10;1.52;;;21.20;61.40;;;;;;5021715;28;20269;-72
2022/05/14 11:13:37;;;;;;;2.70;1.40;;;21.20;61.30;;;;;;5037425;28;20210;-72
2022/05/14 11:16:13;;;;;;;2.47;1.65;;;21.20;61.40;;;;;;5037886;28;20193;-72
2022/05/14 11:18:53;;;;;;;3.00;1.60;;;21.20;61.40;;;;;;5054272;28;20166;-71
2022/05/14 11:21:34;;;;;;;1.65;1.52;;;21.20;61.40;;;;;;5019278;28;20194;-72
2022/05/14 11:24:02;;;;;;;1.65;1.40;;;21.20;61.40;;;;;;5039455;28;20276;-72
2022/05/14 11:26:28;;;;;;;2.28;1.67;;;21.30;61.40;;;;;;5073659;28;20213;-74
2022/05/14 11:29:42;;;;;;;3.47;1.58;;;21.30;62.30;;;;;;5033112;28;20252;-74
2022/05/14 11:32:17;;;;;;;1.67;1.50;;;21.20;61.40;;;;;;5011001;28;20225;-72
2022/05/14 11:34:57;;;;;;;2.17;1.48;;;21.20;61.40;;;;;;5035953;28;20162;-72
2022/05/14 11:37:50;;;;;;;1.38;1.17;;;21.30;61.50;;;;;;5036863;28;20187;-72
2022/05/14 11:40:19;;;;;;;3.72;1.75;;;21.20;61.40;;;;;;5041318;28;20179;-72
2022/05/14 11:42:49;;;;;;;3.08;1.50;;;21.20;61.30;;;;;;5036666;28;20218;-72
2022/05/14 11:45:28;;;;;;;4.15;1.40;;;21.20;61.30;;;;;;5055235;28;20182;-72
2022/05/14 11:48:20;;;;;;;1.55;1.30;;;21.20;61.50;;;;;;5054839;28;20235;-72
2022/05/14 11:51:12;;;;;;;2.78;1.52;;;21.30;61.60;;;;;;5036252;28;20191;-72
2022/05/14 11:54:21;;;;;;;2.00;1.90;;;21.30;61.70;;;;;;5053815;28;20241;-72
2022/05/14 11:57:07;;;;;;;3.22;1.67;;;21.20;61.50;;;;;;5035760;28;20245;-72
2022/05/14 12:00:12;;;;;;;1.73;1.63;;;21.30;61.60;;;;;;5034966;28;20193;-72
2022/05/14 12:02:47;;;;;;;2.33;1.65;;;21.30;61.60;;;;;;5019468;28;20226;-72
2022/05/14 12:05:58;;;;;;;2.58;1.75;;;21.30;61.40;;;;;;5035449;28;20171;-72
2022/05/14 12:08:44;;;;;;;2.03;1.50;;;21.30;61.40;;;;;;5034422;28;20201;-71
2022/05/14 12:11:27;;;;;;;1.83;1.70;;;21.30;61.50;;;;;;5020374;28;20252;-72
2022/05/14 12:14:00;;;;;;;2.15;1.50;;;21.30;61.50;;;;;;5022834;28;20294;-71
2022/05/14 12:16:31;;;;;;;2.65;1.50;;;21.30;61.40;;;;;;5059116;28;20194;-73
2022/05/14 12:19:00;;;;;;;1.90;1.70;;;21.30;61.50;;;;;;5038193;28;20273;-72
2022/05/14 12:21:27;;;;;;;2.97;1.88;;;21.30;61.40;;;;;;5019637;28;20198;-72
2022/05/14 12:23:53;;;;;;;2.40;1.88;;;21.20;61.30;;;;;;5053395;28;20205;-72
2022/05/14 12:26:28;;;;;;;1.80;1.58;;;21.30;61.30;;;;;;5019583;28;20186;-72
2022/05/14 12:28:59;;;;;;;1.80;1.70;;;21.30;61.30;;;;;;5036111;28;20273;-72
2022/05/14 12:34:12;;;;;;;2.40;1.50;;;21.30;61.20;;;;;;5035715;28;20192;-71
2022/05/14 12:36:50;;;;;;;1.80;1.70;;;21.30;61.40;;;;;;5035622;28;20186;-72
2022/05/14 12:39:24;;;;;;;2.20;1.83;;;21.30;61.20;;;;;;5019551;28;20283;-72
2022/05/14 12:42:04;;;;;;;2.58;1.83;;;21.20;61.20;;;;;;5035696;28;20264;-72
2022/05/14 12:44:41;;;;;;;2.38;1.70;;;21.30;61.10;;;;;;5019567;28;20247;-72
2022/05/14 12:47:08;;;;;;;2.80;1.67;;;21.30;61.20;;;;;;5035816;28;20628;-72
2022/05/14 12:49:45;;;;;;;2.63;1.70;;;21.30;60.90;;;;;;5019311;28;20209;-72
2022/05/14 12:52:18;;;;;;;2.95;1.67;;;21.30;61.00;;;;;;5035721;28;20210;-73
2022/05/14 12:55:09;;;;;;;2.13;1.67;;;21.30;61.10;;;;;;5019950;28;20665;-72
2022/05/14 12:57:38;;;;;;;1.65;1.40;;;21.30;61.00;;;;;;5035878;28;20646;-72
2022/05/14 13:00:07;;;;;;;1.92;1.67;;;21.30;61.20;;;;;;5036937;28;20193;-74
2022/05/14 13:02:47;;;;;;;3.97;3.67;;;21.30;61.20;;;;;;5035761;28;20221;-73
2022/05/14 13:05:29;;;;;;;4.80;2.75;;;21.30;61.00;;;;;;5018664;28;20175;-73
2022/05/14 13:08:24;;;;;;;3.60;1.88;;;21.30;61.20;;;;;;5052369;28;20257;-73
2022/05/14 13:11:01;;;;;;;2.58;1.80;;;21.30;61.00;;;;;;5034883;28;20186;-72
2022/05/14 13:13:33;;;;;;;2.13;1.92;;;21.30;60.70;;;;;;5036310;28;20209;-72
2022/05/14 13:15:58;;;;;;;2.20;2.00;;;21.30;60.90;;;;;;5018364;28;20266;-72
2022/05/14 13:18:31;;;;;;;2.08;1.73;;;21.30;60.80;;;;;;5024740;28;20328;-72
2022/05/14 13:21:08;;;;;;;2.90;2.03;;;21.30;61.00;;;;;;5052545;28;20167;-73
2022/05/14 13:23:37;;;;;;;1.75;1.63;;;21.30;60.90;;;;;;5050982;28;20272;-72
2022/05/14 13:26:43;;;;;;;2.58;2.10;;;21.30;60.90;;;;;;5051297;28;20263;-72
2022/05/14 13:29:33;;;;;;;2.38;2.08;;;21.30;61.10;;;;;;5036226;28;20201;-72
2022/05/14 13:32:26;;;;;;;1.80;1.70;;;21.30;60.80;;;;;;5040559;28;20229;-73
2022/05/14 13:37:53;;;;;;;2.13;1.92;;;21.30;60.90;;;;;;5055710;28;20608;-72